Time;durP1;ratioP1;P1;durP2;ratioP2;P2;SDS_P1;SDS_P2;PMS_P1;PMS_P2;Temp;Humidity;BMP_temperature;BMP_pressure;BME280_temperature;BME280_humidity;BME280_pressure;Samples;Min_cycle;Max_cycle;Signal;HPM_P1;HPM_P2
2022/05/24 00:03:51;;;;;;;4.10;3.80;;;19.40;83.40;;;21.98;62.52;99686.22;5163184;27;20967;-58
2022/05/24 00:06:18;;;;;;;4.57;4.10;;;19.20;84.80;;;21.95;62.93;99700.16;5114031;28;20223;-60
2022/05/24 00:08:45;;;;;;;6.33;5.73;;;19.20;85.60;;;21.94;62.80;99706.63;5114680;28;20207;-58
2022/05/24 00:11:11;;;;;;;5.30;4.90;;;19.10;86.00;;;21.91;62.97;99707.16;5105593;28;20218;-60
2022/05/24 00:13:38;;;;;;;6.93;6.33;;;19.10;85.40;;;21.88;62.69;99713.06;5083039;28;20202;-60
2022/05/24 00:16:05;;;;;;;6.33;5.83;;;19.00;85.10;;;21.84;62.14;99711.97;5039650;28;20224;-59
2022/05/24 00:18:32;;;;;;;5.53;5.13;;;18.90;84.30;;;21.77;62.13;99720.31;5069118;28;20197;-57
2022/05/24 00:21:03;;;;;;;5.73;5.27;;;18.90;83.30;;;21.69;62.20;99738.78;5040295;28;20205;-60
2022/05/24 00:23:44;;;;;;;4.90;4.57;;;18.90;83.70;;;21.59;62.45;99737.75;4935122;28;20230;-57
2022/05/24 00:28:48;;;;;;;5.50;5.00;;;18.80;83.80;;;21.48;62.03;99746.06;5171776;27;20396;-59
2022/05/24 00:31:15;;;;;;;7.37;6.67;;;18.60;83.20;;;21.44;61.54;99748.47;5150665;27;20202;-60
2022/05/24 00:33:41;;;;;;;6.37;5.80;;;18.60;83.50;;;21.41;62.18;99758.94;5150444;27;20202;-58
2022/05/24 00:36:08;;;;;;;5.87;5.47;;;18.50;83.80;;;21.38;61.95;99756.78;5132129;27;20215;-59
2022/05/24 00:38:36;;;;;;;6.40;5.90;;;18.50;84.10;;;21.33;61.97;99772.84;5117873;28;20239;-58
2022/05/24 00:41:22;;;;;;;6.30;5.43;;;18.50;83.70;;;21.23;61.14;99776.34;4987344;28;20198;-59
2022/05/24 00:43:56;;;;;;;7.00;6.40;;;18.40;83.30;;;21.16;61.23;99789.19;4825117;29;20214;-59
2022/05/24 00:49:06;;;;;;;6.37;5.77;;;18.30;82.60;;;21.03;60.98;99786.22;5171669;27;20633;-59
2022/05/24 00:51:39;;;;;;;6.90;6.33;;;18.20;82.80;;;21.00;61.21;99789.41;5132086;27;20187;-57
2022/05/24 00:54:07;;;;;;;7.77;6.83;;;18.20;82.90;;;20.98;61.76;99789.69;5130391;27;20191;-57
2022/05/24 00:56:51;;;;;;;8.47;7.63;;;18.10;82.40;;;20.95;61.30;99787.53;5128166;27;20227;-61
2022/05/24 00:59:32;;;;;;;7.17;6.57;;;18.10;82.80;;;20.93;62.06;99787.00;5074148;28;20194;-65
2022/05/24 01:01:59;;;;;;;9.00;7.50;;;18.10;83.40;;;20.94;62.14;99794.75;5000526;28;20194;-57
2022/05/24 01:04:27;;;;;;;9.03;8.23;;;18.10;83.40;;;20.92;61.78;99804.91;5004188;28;20257;-58
2022/05/24 01:08:12;;;;;;;9.37;8.47;;;18.10;83.70;;;20.72;61.16;99801.41;5014772;28;20237;-60
2022/05/24 01:10:38;;;;;;;9.87;8.33;;;18.10;83.40;;;20.78;62.31;99813.72;4791189;29;20226;-60
2022/05/24 01:15:16;;;;;;;8.97;8.07;;;18.10;84.40;;;20.79;61.81;99812.66;5164341;27;20962;-60
2022/05/24 01:17:44;;;;;;;9.30;7.77;;;18.10;83.60;;;20.82;62.05;99817.50;5109626;28;20266;-60
2022/05/24 01:20:13;;;;;;;9.40;8.50;;;18.10;83.40;;;20.83;61.95;99819.06;5092606;28;20203;-59
2022/05/24 01:23:31;;;;;;;8.40;7.63;;;18.00;83.40;;;20.74;61.99;99826.00;5123313;28;20195;-60
2022/05/24 01:26:10;;;;;;;8.63;7.83;;;18.10;82.90;;;20.81;62.58;99826.56;4981389;28;20279;-57
2022/05/24 01:28:44;;;;;;;8.20;7.40;;;18.10;82.90;;;20.84;62.58;99828.72;4869789;29;20217;-59
2022/05/24 01:31:11;;;;;;;10.77;7.87;;;18.10;83.40;;;20.88;62.37;99827.13;4796202;29;20216;-57
2022/05/24 01:40:17;;;;;;;7.77;6.97;;;18.10;82.50;;;20.85;62.60;99838.34;5171853;27;20633;-58
2022/05/24 01:42:43;;;;;;;7.83;7.13;;;18.10;83.20;;;20.88;62.02;99843.97;5148621;27;20190;-58
2022/05/24 01:45:18;;;;;;;8.07;7.27;;;18.10;82.80;;;20.86;62.26;99839.97;5148990;27;20225;-59
2022/05/24 01:47:58;;;;;;;7.10;6.40;;;18.10;82.60;;;20.86;62.14;99840.78;5095207;28;20192;-60
2022/05/24 01:50:28;;;;;;;7.63;6.70;;;18.10;83.10;;;20.89;62.60;99847.47;5096508;28;20209;-58
2022/05/24 01:53:01;;;;;;;7.73;6.87;;;18.10;83.00;;;20.92;62.48;99842.38;5059002;28;20216;-58
2022/05/24 01:55:34;;;;;;;7.03;6.33;;;18.10;83.50;;;20.94;62.37;99860.88;5066519;28;20246;-60
2022/05/24 02:01:50;;;;;;;6.17;5.67;;;18.10;82.50;;;20.82;61.65;99861.06;5171802;27;20979;-59
2022/05/24 02:04:20;;;;;;;6.60;5.80;;;18.10;81.90;;;20.82;62.14;99861.06;5132534;27;20190;-59
2022/05/24 02:06:59;;;;;;;6.67;5.97;;;18.00;82.50;;;20.76;62.41;99866.69;5117805;28;20249;-58
2022/05/24 02:09:26;;;;;;;5.60;5.10;;;18.10;84.50;;;20.82;63.37;99865.66;5066873;28;20198;-60
2022/05/24 02:11:57;;;;;;;6.83;6.10;;;18.00;84.30;;;20.85;61.42;99865.09;5034126;28;20198;-61
2022/05/24 02:14:30;;;;;;;6.53;5.00;;;18.00;81.60;;;20.89;62.06;99866.19;5007845;28;20195;-59
2022/05/24 02:17:04;;;;;;;8.47;5.60;;;18.00;83.20;;;20.92;62.05;99871.00;4958013;28;20201;-60
2022/05/24 02:19:37;;;;;;;10.07;7.73;;;18.00;82.60;;;20.93;61.30;99875.31;4884183;29;20645;-63
2022/05/24 02:22:18;;;;;;;6.17;5.60;;;18.00;82.20;;;20.94;61.60;99868.91;4785749;29;20278;-59
2022/05/24 02:27:22;;;;;;;5.77;4.87;;;18.00;81.90;;;20.96;61.21;99876.66;5213865;27;20642;-60
2022/05/24 02:29:49;;;;;;;6.53;5.33;;;18.00;82.90;;;20.96;61.04;99868.63;5192281;27;20318;-61
2022/05/24 02:32:15;;;;;;;6.33;5.83;;;18.00;81.90;;;20.94;60.68;99868.91;5192132;27;20579;-58
2022/05/24 02:34:42;;;;;;;6.73;5.20;;;18.00;81.60;;;20.94;60.49;99866.22;5204676;27;20548;-59
2022/05/24 02:37:09;;;;;;;6.60;6.00;;;18.00;81.00;;;20.93;60.20;99872.63;5141407;27;20209;-59
2022/05/24 02:41:28;;;;;;;6.00;4.80;;;17.90;80.70;;;20.89;60.05;99877.69;5076256;28;20199;-60
2022/05/24 02:42:23;;;;;;;4.80;4.40;;;18.00;81.50;;;20.88;59.91;99884.13;4946007;28;20213;-60
2022/05/24 02:44:50;;;;;;;5.30;4.80;;;17.90;81.10;;;20.88;59.98;99881.44;4953994;28;20658;-59
2022/05/24 02:47:33;;;;;;;5.10;4.70;;;17.90;80.00;;;20.85;59.67;99891.84;5166644;27;20957;-59
2022/05/24 02:50:00;;;;;;;4.97;4.53;;;18.00;81.00;;;20.86;59.41;99880.09;5151081;27;20565;-59
2022/05/24 02:52:27;;;;;;;5.30;4.27;;;18.00;79.70;;;20.88;59.51;99880.63;5141571;27;20230;-59
2022/05/24 02:54:54;;;;;;;7.77;5.03;;;18.00;78.50;;;20.86;58.25;99890.78;5115186;28;20216;-60
2022/05/24 02:57:20;;;;;;;6.20;5.40;;;18.00;78.70;;;20.79;58.00;99892.91;5092359;28;20193;-60
2022/05/24 02:59:47;;;;;;;5.67;5.17;;;18.00;78.50;;;20.71;57.61;99890.72;5050799;28;20204;-59
2022/05/24 03:02:14;;;;;;;4.67;4.27;;;17.90;76.90;;;20.68;57.55;99899.28;5015553;28;20204;-60
2022/05/24 03:11:17;;;;;;;6.43;4.00;;;17.80;77.50;;;20.62;58.27;99903.00;5120724;27;20605;-60
2022/05/24 03:16:29;;;;;;;5.13;4.60;;;17.80;78.20;;;20.68;57.77;99907.31;5083497;28;20660;-60
2022/05/24 03:18:58;;;;;;;6.40;4.30;;;17.80;78.60;;;20.71;58.17;99904.09;5042474;28;20654;-60
2022/05/24 03:21:24;;;;;;;4.97;4.47;;;17.90;78.50;;;20.74;57.64;99912.44;5022981;28;20670;-58
2022/05/24 03:23:52;;;;;;;4.87;4.47;;;17.90;78.50;;;20.79;57.97;99919.66;5033038;28;20198;-59
2022/05/24 03:26:18;;;;;;;4.93;4.43;;;17.90;78.10;;;20.82;57.61;99913.78;5017391;28;20228;-64
2022/05/24 03:31:22;;;;;;;5.43;5.00;;;17.90;78.10;;;20.83;57.16;99912.72;5162083;27;21055;-58
2022/05/24 03:33:49;;;;;;;5.17;4.70;;;18.00;77.80;;;20.79;56.96;99914.31;5123647;27;20206;-60
2022/05/24 03:36:19;;;;;;;6.50;4.73;;;18.00;78.00;;;20.77;57.07;99914.59;5129381;27;20229;-60
2022/05/24 03:38:45;;;;;;;5.57;5.07;;;18.00;77.60;;;20.72;57.09;99921.78;5129145;28;20203;-60
2022/05/24 03:41:12;;;;;;;5.60;4.53;;;18.00;77.60;;;20.70;57.42;99924.72;5111110;28;20268;-60
2022/05/24 03:43:39;;;;;;;5.50;5.00;;;18.00;77.60;;;20.71;57.24;99944.22;5084261;28;20292;-59
2022/05/24 03:46:11;;;;;;;6.00;5.50;;;17.90;76.90;;;20.72;56.81;99945.84;5054481;28;20561;-60
2022/05/24 03:48:39;;;;;;;5.87;4.80;;;17.90;76.80;;;20.69;56.88;99946.34;4860299;29;20208;-57
2022/05/24 03:51:20;;;;;;;5.73;5.20;;;17.90;77.00;;;20.62;56.71;99956.50;4781097;29;20213;-60
2022/05/24 03:56:25;;;;;;;6.17;5.23;;;17.90;76.80;;;20.42;56.71;99962.50;5147866;27;20564;-61
2022/05/24 03:58:53;;;;;;;6.50;5.83;;;17.90;76.20;;;20.37;56.91;99964.38;5129495;28;20203;-60
2022/05/24 04:01:19;;;;;;;7.33;5.57;;;17.90;76.30;;;20.29;56.75;99967.50;5126403;28;20191;-60
2022/05/24 04:03:46;;;;;;;6.00;4.97;;;17.80;76.10;;;20.24;57.00;99971.75;5095638;28;20199;-59
2022/05/24 04:06:14;;;;;;;8.33;5.87;;;17.80;76.50;;;20.25;57.06;99976.03;5088621;28;20372;-65
2022/05/24 04:08:41;;;;;;;8.00;6.90;;;17.80;76.50;;;20.15;56.58;99970.59;5064537;28;20189;-58
2022/05/24 04:11:10;;;;;;;7.97;5.47;;;17.70;75.80;;;20.13;56.98;99979.94;5072872;28;20202;-61
2022/05/24 04:15:08;;;;;;;7.90;6.20;;;17.60;76.10;;;20.03;57.10;99986.00;5061906;28;20204;-60
2022/05/24 04:20:14;;;;;;;7.17;5.77;;;17.60;76.20;;;20.04;56.96;99976.91;5171701;27;20384;-60
2022/05/24 04:22:41;;;;;;;7.47;5.87;;;17.50;76.00;;;20.04;56.81;99981.47;5131699;27;20199;-61
2022/05/24 04:25:08;;;;;;;6.13;5.53;;;17.50;76.20;;;20.03;56.78;99975.31;5143066;27;20242;-61
2022/05/24 04:27:35;;;;;;;6.57;5.97;;;17.50;76.30;;;20.07;56.73;99980.94;5101024;28;20197;-60
2022/05/24 04:30:02;;;;;;;7.17;6.13;;;17.50;76.20;;;20.17;57.07;99976.50;5066146;28;20202;-60
2022/05/24 04:32:29;;;;;;;8.03;7.23;;;17.50;76.30;;;20.27;56.61;99970.44;5006773;28;20291;-59
2022/05/24 04:34:56;;;;;;;9.17;8.27;;;17.50;76.30;;;20.36;56.63;99963.56;4930735;28;20264;-59
2022/05/24 04:40:11;;;;;;;6.47;5.80;;;17.50;76.20;;;20.51;56.07;99976.22;5171588;27;20626;-57
2022/05/24 04:42:38;;;;;;;6.63;6.03;;;17.60;76.10;;;20.54;55.53;99981.84;5125662;28;20199;-58
2022/05/24 04:45:09;;;;;;;6.33;5.83;;;17.70;76.00;;;20.60;55.67;99985.38;5124501;28;20211;-59
2022/05/24 04:47:37;;;;;;;7.60;6.73;;;17.70;75.50;;;20.55;54.91;99977.31;5109384;28;20188;-59
2022/05/24 04:50:10;;;;;;;6.37;5.70;;;17.80;74.60;;;20.58;55.32;99982.16;5060001;28;20240;-57
2022/05/24 04:52:40;;;;;;;8.40;7.23;;;17.80;75.00;;;20.59;54.59;99973.03;4945939;28;20203;-57
2022/05/24 04:55:12;;;;;;;7.73;6.73;;;17.80;74.50;;;20.57;55.35;99975.16;4887890;29;20235;-59
2022/05/24 05:00:21;;;;;;;8.50;7.70;;;17.90;74.70;;;20.71;55.11;99966.44;5161643;27;20642;-60
2022/05/24 05:02:47;;;;;;;8.13;6.90;;;18.00;74.80;;;20.77;55.57;99962.75;5111869;28;20560;-58
2022/05/24 05:05:15;;;;;;;8.33;7.10;;;18.00;74.90;;;20.85;55.01;99967.56;5121383;27;20255;-58
2022/05/24 05:07:42;;;;;;;6.67;6.07;;;18.00;74.80;;;20.94;54.66;99975.94;5108224;28;20196;-59
2022/05/24 05:10:12;;;;;;;8.07;7.37;;;18.00;74.80;;;20.97;54.22;99970.03;5076354;28;20622;-60
2022/05/24 05:12:39;;;;;;;6.70;6.10;;;18.10;74.30;;;21.02;54.92;99972.72;5038370;28;20210;-60
2022/05/24 05:15:08;;;;;;;7.03;6.03;;;18.10;74.50;;;21.14;54.59;99975.22;5081145;28;20803;-58
2022/05/24 05:19:06;;;;;;;8.83;7.33;;;18.20;74.90;;;21.22;54.48;99983.56;5060453;28;20714;-64
2022/05/24 05:24:10;;;;;;;8.80;8.00;;;18.30;74.50;;;21.23;53.82;100006.56;5171916;27;20622;-60
2022/05/24 05:26:37;;;;;;;7.97;7.17;;;18.50;73.10;;;21.08;53.63;100009.19;5130614;27;20215;-60
2022/05/24 05:29:04;;;;;;;8.43;7.53;;;18.40;72.70;;;20.95;54.33;100009.63;5128642;28;20205;-60
2022/05/24 05:31:31;;;;;;;7.53;6.83;;;18.40;73.00;;;20.87;54.06;100008.25;5077998;28;20199;-60
2022/05/24 05:34:00;;;;;;;8.57;7.33;;;18.30;73.30;;;20.89;54.86;100010.69;5092588;28;20224;-59
2022/05/24 05:36:30;;;;;;;8.00;7.20;;;18.30;73.90;;;20.89;54.53;100018.72;4966332;28;20222;-60
2022/05/24 05:38:58;;;;;;;8.27;7.47;;;18.30;74.10;;;20.84;54.53;100018.69;4787419;29;20609;-58
2022/05/24 05:44:04;;;;;;;8.30;7.53;;;18.20;74.00;;;20.75;55.13;100014.88;5171252;27;20642;-58
2022/05/24 05:46:30;;;;;;;9.37;8.53;;;18.20;74.60;;;20.65;55.76;100018.31;5109866;28;20227;-60
2022/05/24 05:48:57;;;;;;;8.90;8.00;;;18.10;74.60;;;20.61;55.65;100016.41;5124437;28;20195;-60
2022/05/24 05:51:30;;;;;;;9.33;8.43;;;18.10;74.80;;;20.53;56.12;100017.69;5094247;28;20719;-61
2022/05/24 05:53:57;;;;;;;10.57;9.53;;;18.10;75.20;;;20.56;56.59;100008.34;5049113;28;20223;-58
2022/05/24 05:56:26;;;;;;;10.50;9.27;;;18.10;75.60;;;20.60;56.51;100017.47;5011583;28;20248;-61
2022/05/24 05:58:52;;;;;;;10.97;9.77;;;18.10;75.70;;;20.66;56.38;100022.56;5044661;28;20593;-61
2022/05/24 06:01:18;;;;;;;12.00;10.90;;;18.10;75.90;;;20.65;56.13;100022.84;4989186;28;20296;-57
2022/05/24 06:06:29;;;;;;;10.80;9.70;;;18.10;75.70;;;20.73;56.39;100027.69;5152348;27;20639;-59
2022/05/24 06:08:56;;;;;;;15.77;11.60;;;18.10;76.60;;;20.76;56.40;100027.19;5108872;27;20198;-60
2022/05/24 06:11:23;;;;;;;13.70;12.30;;;18.10;75.70;;;20.67;56.02;100034.91;5098758;28;20291;-59
2022/05/24 06:13:53;;;;;;;15.30;13.80;;;18.20;75.60;;;20.64;56.40;100032.72;5091643;28;20653;-61
2022/05/24 06:16:32;;;;;;;14.07;12.77;;;18.20;75.60;;;20.63;56.20;100043.69;4989390;28;20606;-62
2022/05/24 06:19:02;;;;;;;14.33;12.93;;;18.20;75.60;;;20.66;56.86;100049.31;4852801;29;20280;-62
2022/05/24 06:21:33;;;;;;;14.63;13.17;;;18.20;75.70;;;20.71;56.30;100059.25;4731530;29;20225;-61
2022/05/24 06:24:03;;;;;;;14.07;12.03;;;18.20;75.60;;;20.76;56.64;100053.94;4439392;31;20331;-61
2022/05/24 06:28:06;;;;;;;15.73;14.33;;;18.30;75.60;;;20.75;55.89;100052.34;5140990;27;20544;-59
2022/05/24 06:30:33;;;;;;;22.17;19.30;;;18.30;75.20;;;20.85;55.69;100053.19;5082045;28;20285;-61
2022/05/24 06:33:00;;;;;;;15.33;13.93;;;18.30;75.10;;;21.00;55.48;100049.00;5125378;27;20564;-61
2022/05/24 06:35:27;;;;;;;16.03;13.80;;;18.40;75.30;;;21.19;55.65;100052.88;5053329;28;20226;-61
2022/05/24 06:37:54;;;;;;;14.73;13.23;;;18.50;75.30;;;21.33;55.13;100062.03;4996148;28;20225;-62
2022/05/24 06:40:26;;;;;;;17.87;15.33;;;18.50;75.20;;;21.26;54.76;100062.28;4847482;29;20660;-61
2022/05/24 06:42:56;;;;;;;18.43;16.83;;;18.60;74.60;;;21.26;54.41;100066.81;4651799;30;20220;-62
2022/05/24 06:45:23;;;;;;;18.10;16.20;;;18.60;73.90;;;21.26;54.54;100067.63;4534238;31;20434;-67
2022/05/24 06:50:35;;;;;;;17.77;15.90;;;18.70;73.90;;;21.40;54.36;100068.75;5138592;27;20645;-65
2022/05/24 06:53:20;;;;;;;17.83;16.20;;;18.80;74.10;;;21.44;54.61;100072.53;5065780;28;20258;-65
2022/05/24 06:56:16;;;;;;;17.73;15.93;;;18.80;73.90;;;21.57;53.98;100072.03;5021016;28;20289;-65
2022/05/24 07:04:45;;;;;;;18.13;16.13;;;18.90;72.60;;;21.74;53.36;100071.81;4661980;30;20250;-66
2022/05/24 07:07:15;;;;;;;17.90;16.10;;;19.00;73.10;;;21.79;53.04;100073.72;4437154;31;20224;-64
2022/05/24 07:09:41;;;;;;;17.13;15.40;;;19.00;72.50;;;21.69;53.07;100084.41;4194396;33;20266;-65
2022/05/24 07:13:04;;;;;;;17.67;15.97;;;19.00;71.60;;;21.60;52.86;100097.50;5135819;27;20557;-68
2022/05/24 07:15:31;;;;;;;17.97;16.03;;;19.10;71.50;;;21.63;53.45;100096.19;5064095;28;20248;-67
2022/05/24 07:17:58;;;;;;;19.00;17.17;;;19.10;71.50;;;21.69;52.72;100103.16;5069156;28;20204;-69
2022/05/24 07:20:27;;;;;;;17.20;15.50;;;19.10;71.10;;;21.84;52.80;100112.09;5007852;28;20201;-69
2022/05/24 07:23:07;;;;;;;16.07;14.57;;;19.20;71.00;;;22.03;51.87;100101.69;4983459;28;20239;-68
2022/05/24 07:25:36;;;;;;;16.83;15.23;;;19.30;71.00;;;22.25;51.85;100099.56;4906162;28;20249;-69
2022/05/24 07:28:04;;;;;;;17.20;15.40;;;19.40;70.60;;;22.41;50.73;100101.19;4838344;29;20209;-60
2022/05/24 07:30:31;;;;;;;17.83;15.98;;;19.50;69.80;;;22.85;49.68;100110.31;4676073;29;20481;-59
2022/05/24 07:34:42;;;;;;;14.90;13.40;;;19.50;69.80;;;22.81;49.98;100114.63;5122526;27;20579;-64
2022/05/24 07:37:16;;;;;;;15.80;14.27;;;19.70;69.00;;;22.98;49.75;100111.66;5088616;28;20212;-63
2022/05/24 07:39:43;;;;;;;16.33;14.83;;;19.90;68.90;;;23.04;48.67;100112.44;5024718;28;20214;-62
2022/05/24 07:47:44;;;;;;;17.80;16.13;;;20.00;66.60;;;22.81;48.89;100144.16;4740279;29;20699;-61
2022/05/24 07:53:11;;;;;;;17.27;15.67;;;20.00;66.40;;;22.67;48.59;100158.38;5109326;27;20548;-59
2022/05/24 07:55:39;;;;;;;17.30;15.00;;;20.00;65.90;;;22.48;49.45;100158.06;5092179;27;20677;-57
2022/05/24 07:58:06;;;;;;;16.20;14.67;;;19.90;67.00;;;22.34;50.65;100172.25;5058297;28;20212;-58
2022/05/24 08:00:35;;;;;;;18.00;16.20;;;19.90;67.70;;;22.12;51.88;100180.50;5059131;28;20208;-60
2022/05/24 08:03:01;;;;;;;19.00;17.10;;;19.70;69.20;;;21.73;55.02;100179.28;5046797;28;20210;-60
2022/05/24 08:05:32;;;;;;;20.00;18.03;;;19.60;72.70;;;21.31;56.46;100196.19;4959612;28;20249;-60
2022/05/24 08:08:00;;;;;;;21.07;18.87;;;19.30;74.00;;;20.85;57.91;100197.69;4786041;29;20358;-64
2022/05/24 08:10:26;;;;;;;20.97;18.80;;;19.00;75.60;;;20.54;58.82;100205.69;4521116;30;20249;-59
2022/05/24 08:14:24;;;;;;;24.70;18.73;;;18.70;76.70;;;20.32;59.13;100202.25;5109874;27;20624;-59
2022/05/24 08:16:52;;;;;;;22.67;20.13;;;18.30;77.20;;;20.31;59.17;100213.97;5066924;28;20196;-59
2022/05/24 08:19:19;;;;;;;22.17;19.77;;;18.10;78.30;;;20.11;59.75;100212.66;5100075;28;20992;-61
2022/05/24 08:21:46;;;;;;;22.57;20.17;;;18.00;78.70;;;20.11;59.71;100199.31;5045811;28;20204;-60
2022/05/24 08:24:13;;;;;;;23.17;20.87;;;17.90;79.20;;;20.10;59.58;100211.06;5030172;28;20206;-60
2022/05/24 08:26:40;;;;;;;23.53;20.03;;;17.80;79.50;;;20.04;60.21;100204.03;4910832;28;20234;-59
2022/05/24 08:29:06;;;;;;;22.40;20.10;;;17.70;79.70;;;20.01;59.84;100217.91;4822305;29;20254;-60
2022/05/24 08:31:33;;;;;;;20.33;16.90;;;17.70;79.40;;;20.10;59.51;100215.59;4617687;30;20246;-59
2022/05/24 08:36:37;;;;;;;20.10;18.03;;;17.70;79.70;;;20.30;58.82;100223.09;5124022;27;20563;-57
2022/05/24 08:39:04;;;;;;;24.83;18.60;;;17.70;79.70;;;20.37;58.92;100231.72;5068444;28;20200;-61
2022/05/24 08:41:56;;;;;;;20.37;17.47;;;17.70;80.00;;;20.45;59.24;100231.25;5067160;28;20277;-59
2022/05/24 08:50:17;;;;;;;19.70;15.73;;;17.80;79.50;;;20.37;58.96;100237.06;4713636;29;20664;-60
2022/05/24 08:55:43;;;;;;;15.57;13.97;;;17.80;78.60;;;20.33;58.88;100242.09;5129984;27;20554;-64
2022/05/24 08:58:24;;;;;;;14.97;13.57;;;17.80;79.20;;;20.35;59.17;100239.19;5110413;27;20199;-59
2022/05/24 09:00:51;;;;;;;14.80;13.37;;;17.80;79.50;;;20.28;58.70;100247.38;5092979;27;20208;-61
2022/05/24 09:03:24;;;;;;;15.10;13.60;;;17.70;78.90;;;20.27;59.38;100252.97;5082402;28;20947;-62
2022/05/24 09:06:03;;;;;;;14.93;12.47;;;17.70;79.20;;;20.27;58.62;100242.28;4940968;28;20377;-62
2022/05/24 09:08:44;;;;;;;16.33;12.17;;;17.70;79.80;;;20.29;58.99;100251.69;4813042;29;20234;-60
2022/05/24 09:11:21;;;;;;;17.35;15.75;;;17.70;79.60;;;20.62;58.56;100256.03;4739372;29;20480;-61
2022/05/24 09:14:11;;;;;;;12.43;10.90;;;17.60;80.20;;;20.30;56.75;100249.81;4503225;31;20608;-62
2022/05/24 09:19:23;;;;;;;12.87;10.07;;;17.70;77.80;;;20.18;57.58;100265.97;5130661;27;20560;-62
2022/05/24 09:21:53;;;;;;;11.17;10.07;;;17.70;77.90;;;20.17;57.97;100264.31;5088764;28;20203;-61
2022/05/24 09:24:41;;;;;;;10.70;9.63;;;17.70;77.80;;;20.06;58.56;100263.38;5073687;28;20201;-62
2022/05/24 09:27:16;;;;;;;11.57;10.37;;;17.70;78.00;;;20.02;57.86;100259.59;4994667;28;20652;-62
2022/05/24 09:30:02;;;;;;;11.23;10.13;;;17.70;78.00;;;19.99;58.65;100246.72;4938971;28;20218;-60
2022/05/24 09:32:38;;;;;;;10.43;9.40;;;17.60;78.60;;;19.92;57.73;100261.34;4762118;29;20235;-62
2022/05/24 09:35:26;;;;;;;10.10;9.10;;;17.50;77.90;;;19.76;57.85;100262.97;4614473;30;20245;-60
2022/05/24 09:38:08;;;;;;;12.23;9.83;;;17.50;77.60;;;19.71;59.05;100265.56;4412875;31;20278;-61
2022/05/24 09:43:27;;;;;;;11.17;10.07;;;17.50;79.00;;;19.72;58.02;100261.88;5116011;27;20643;-61
2022/05/24 09:46:00;;;;;;;11.97;9.70;;;17.40;79.00;;;19.65;58.28;100271.09;5050757;28;20235;-62
2022/05/24 09:48:30;;;;;;;11.52;9.65;;;17.30;78.90;;;20.24;58.05;100267.66;5066203;28;20453;-61
2022/05/24 09:51:01;;;;;;;11.80;9.87;;;17.20;80.30;;;20.25;57.94;100271.94;5025069;28;20275;-61
2022/05/24 09:53:31;;;;;;;12.23;9.83;;;17.40;80.80;;;20.38;56.87;100278.75;4909388;28;20220;-61
2022/05/24 09:56:02;;;;;;;10.63;8.87;;;17.50;79.20;;;20.25;56.22;100283.44;4773167;29;21028;-62
2022/05/24 10:01:13;;;;;;;9.37;8.47;;;17.50;78.00;;;20.35;57.83;100287.31;5119879;27;20544;-61
2022/05/24 10:04:17;;;;;;;12.93;10.63;;;17.60;79.70;;;20.43;57.32;100273.47;5077653;28;20228;-59
2022/05/24 10:06:55;;;;;;;11.30;10.18;;;17.70;79.40;;;20.72;57.69;100278.38;5013894;28;20446;-60
2022/05/24 10:09:53;;;;;;;11.38;10.27;;;17.80;80.40;;;20.91;55.17;100276.13;5008863;28;20439;-61
2022/05/24 10:12:42;;;;;;;14.77;10.43;;;17.80;79.50;;;20.83;56.87;100289.97;4811941;29;20480;-62
2022/05/24 10:15:20;;;;;;;11.67;10.53;;;17.80;78.90;;;20.80;56.34;100299.28;4615910;30;20384;-59
2022/05/24 10:21:49;;;;;;;11.03;9.37;;;17.90;78.20;;;20.96;56.51;100294.91;5167022;27;20609;-62
2022/05/24 10:24:33;;;;;;;10.77;9.53;;;18.00;78.30;;;21.36;55.42;100289.94;5117041;27;20659;-63
2022/05/24 10:27:32;;;;;;;11.43;10.23;;;18.20;79.10;;;22.63;52.14;100302.22;5112172;27;20724;-61
2022/05/24 10:30:06;;;;;;;11.20;9.60;;;18.60;79.10;;;23.59;49.69;100303.13;5074708;28;20224;-62
2022/05/24 10:38:38;;;;;;;11.70;8.70;;;19.80;72.00;;;23.59;46.76;100321.94;4482370;31;20300;-63
2022/05/24 10:44:13;;;;;;;8.63;7.73;;;19.90;67.40;;;23.19;46.23;100329.97;5133759;27;20616;-64
2022/05/24 10:46:45;;;;;;;10.10;8.87;;;20.00;64.10;;;23.19;46.90;100332.63;5065669;28;20247;-62
2022/05/24 10:49:22;;;;;;;10.93;9.47;;;20.10;64.80;;;23.56;46.85;100330.53;5099412;28;20241;-59
2022/05/24 10:51:55;;;;;;;11.50;8.47;;;20.20;65.60;;;23.96;45.44;100337.75;5024387;28;20890;-60
2022/05/24 10:54:39;;;;;;;11.67;8.50;;;20.40;64.60;;;23.91;43.49;100343.13;4934855;28;20211;-62
2022/05/24 10:57:16;;;;;;;8.23;7.40;;;20.50;61.20;;;23.96;44.87;100341.22;4779551;29;20299;-62
2022/05/24 11:00:12;;;;;;;8.70;6.47;;;20.70;62.80;;;24.42;43.24;100333.03;4651480;30;20239;-62
2022/05/24 11:02:53;;;;;;;8.07;7.27;;;20.80;60.30;;;24.67;43.68;100335.63;4327662;32;20748;-65
2022/05/24 11:07:45;;;;;;;7.73;6.67;;;21.00;62.20;;;25.46;41.33;100327.31;5122735;27;20396;-62
2022/05/24 11:10:24;;;;;;;9.60;6.77;;;21.40;59.80;;;26.00;39.66;100333.31;5085235;28;20286;-62
2022/05/24 11:12:56;;;;;;;8.70;5.97;;;21.70;57.40;;;26.10;37.49;100332.38;5092951;28;20969;-61
2022/05/24 11:15:32;;;;;;;6.73;5.20;;;21.90;55.90;;;25.57;37.92;100344.22;5039514;28;20292;-62
2022/05/24 11:18:02;;;;;;;5.77;5.13;;;22.00;54.40;;;25.22;37.71;100359.56;4977326;28;20227;-61
2022/05/24 11:20:37;;;;;;;6.83;5.97;;;22.00;53.20;;;24.54;38.83;100355.88;4913632;28;20233;-61
2022/05/24 11:26:03;;;;;;;6.57;5.73;;;21.80;52.60;;;23.56;41.68;100354.72;5109877;27;20565;-62
2022/05/24 11:28:41;;;;;;;5.83;5.23;;;21.30;54.90;;;23.52;41.93;100356.34;5034725;28;20293;-61
2022/05/24 11:31:34;;;;;;;9.77;5.83;;;21.10;55.30;;;23.58;41.44;100360.66;4932541;28;20239;-61
2022/05/24 11:34:18;;;;;;;7.57;5.87;;;21.00;55.30;;;23.37;41.59;100356.31;4989707;28;20236;-63
2022/05/24 11:37:00;;;;;;;8.13;6.70;;;20.80;55.00;;;22.99;41.41;100372.91;4909417;28;20248;-61
2022/05/24 11:39:32;;;;;;;8.67;6.00;;;20.60;54.40;;;22.71;42.02;100371.47;4744951;29;20223;-62
2022/05/24 11:42:17;;;;;;;8.73;5.43;;;20.40;55.00;;;22.46;42.70;100364.09;4493886;30;20236;-63
2022/05/24 11:47:59;;;;;;;7.90;6.43;;;20.30;55.40;;;22.26;43.17;100355.94;5126891;27;20318;-63
2022/05/24 11:50:43;;;;;;;6.93;5.80;;;20.10;56.30;;;22.43;43.33;100359.25;5065758;28;20218;-60
2022/05/24 11:53:26;;;;;;;9.73;6.40;;;20.10;57.00;;;22.54;42.87;100365.44;5050542;28;20216;-63
2022/05/24 11:56:17;;;;;;;5.40;5.00;;;20.10;56.00;;;22.61;41.09;100358.81;4987586;28;20356;-61
2022/05/24 11:58:55;;;;;;;5.70;5.20;;;20.10;54.20;;;22.82;40.40;100355.13;4866537;29;20890;-61
2022/05/24 12:01:46;;;;;;;7.37;4.90;;;20.30;54.00;;;23.24;40.73;100354.94;4749510;29;20213;-63
2022/05/24 12:10:02;;;;;;;6.37;5.20;;;20.60;54.00;;;23.72;40.09;100367.09;5133932;27;20550;-60
2022/05/24 12:12:33;;;;;;;7.50;5.03;;;20.90;54.00;;;23.63;39.25;100365.22;5076578;28;20204;-63
2022/05/24 12:15:15;;;;;;;4.37;3.97;;;21.00;52.40;;;23.86;39.23;100372.72;5081191;28;20623;-64
2022/05/24 12:17:44;;;;;;;8.23;5.03;;;21.10;52.80;;;24.01;38.78;100380.78;5037207;28;20198;-63
2022/05/24 12:20:48;;;;;;;4.60;4.10;;;21.20;51.80;;;24.14;38.00;100388.28;4983048;28;20216;-61
2022/05/24 12:23:19;;;;;;;5.53;4.20;;;21.40;50.10;;;24.41;37.04;100379.88;4871144;29;20235;-62
2022/05/24 12:27:19;;;;;;;7.27;4.13;;;21.40;49.60;;;24.56;36.79;100377.13;4556136;30;20246;-63
2022/05/24 12:29:46;;;;;;;4.63;4.17;;;21.50;49.80;;;24.64;35.51;100400.78;4286813;32;20334;-64
2022/05/24 12:34:29;;;;;;;4.13;3.73;;;21.70;48.20;;;24.66;36.20;100393.25;5154318;27;20619;-61
2022/05/24 12:37:13;;;;;;;4.80;4.37;;;21.80;49.00;;;24.51;35.51;100388.72;5109135;27;20220;-63
2022/05/24 12:39:40;;;;;;;4.20;3.80;;;21.80;47.50;;;24.56;35.93;100393.28;5050320;28;20212;-65
2022/05/24 12:42:12;;;;;;;4.63;4.20;;;21.80;47.70;;;24.75;35.54;100396.97;5050726;28;20205;-65